sensor_id;sensor_type;location;lat;lon;timestamp;P1;durP1;ratioP1;P2;durP2;ratioP2
46731;SDS011;32477;51.474;5.696;2024-03-07T00:00:14;121.82;;;33.53;;
46731;SDS011;32477;51.474;5.696;2024-03-07T00:02:42;112.82;;;34.10;;
46731;SDS011;32477;51.474;5.696;2024-03-07T00:05:08;120.18;;;35.15;;
46731;SDS011;32477;51.474;5.696;2024-03-07T00:07:34;125.00;;;36.05;;
46731;SDS011;32477;51.474;5.696;2024-03-07T00:10:00;111.32;;;35.05;;
46731;SDS011;32477;51.474;5.696;2024-03-07T00:12:28;111.45;;;35.15;;
46731;SDS011;32477;51.474;5.696;2024-03-07T00:14:53;121.70;;;36.40;;
46731;SDS011;32477;51.474;5.696;2024-03-07T00:17:19;129.07;;;37.47;;
46731;SDS011;32477;51.474;5.696;2024-03-07T00:19:45;119.43;;;36.67;;
46731;SDS011;32477;51.474;5.696;2024-03-07T00:22:12;141.80;;;36.95;;
46731;SDS011;32477;51.474;5.696;2024-03-07T00:24:39;151.13;;;41.08;;
46731;SDS011;32477;51.474;5.696;2024-03-07T00:27:05;145.27;;;39.83;;
46731;SDS011;32477;51.474;5.696;2024-03-07T00:29:32;144.63;;;40.00;;
46731;SDS011;32477;51.474;5.696;2024-03-07T00:32:00;150.45;;;42.60;;
46731;SDS011;32477;51.474;5.696;2024-03-07T00:34:26;144.52;;;42.25;;
46731;SDS011;32477;51.474;5.696;2024-03-07T00:36:52;163.98;;;41.03;;
46731;SDS011;32477;51.474;5.696;2024-03-07T00:39:18;157.48;;;41.22;;
46731;SDS011;32477;51.474;5.696;2024-03-07T00:41:44;146.18;;;39.97;;
46731;SDS011;32477;51.474;5.696;2024-03-07T00:44:10;153.98;;;41.20;;
46731;SDS011;32477;51.474;5.696;2024-03-07T00:46:36;182.13;;;43.25;;
46731;SDS011;32477;51.474;5.696;2024-03-07T00:49:02;164.68;;;40.25;;
46731;SDS011;32477;51.474;5.696;2024-03-07T00:51:28;163.35;;;43.85;;
46731;SDS011;32477;51.474;5.696;2024-03-07T00:53:54;155.18;;;43.53;;
46731;SDS011;32477;51.474;5.696;2024-03-07T00:56:20;157.05;;;42.70;;
46731;SDS011;32477;51.474;5.696;2024-03-07T00:58:48;164.63;;;44.28;;
46731;SDS011;32477;51.474;5.696;2024-03-07T01:01:13;167.63;;;42.13;;
46731;SDS011;32477;51.474;5.696;2024-03-07T01:03:40;162.52;;;43.85;;
46731;SDS011;32477;51.474;5.696;2024-03-07T01:06:06;163.20;;;41.22;;
46731;SDS011;32477;51.474;5.696;2024-03-07T01:08:33;136.05;;;42.45;;
46731;SDS011;32477;51.474;5.696;2024-03-07T01:11:00;152.30;;;40.60;;
46731;SDS011;32477;51.474;5.696;2024-03-07T01:13:25;151.15;;;41.65;;
46731;SDS011;32477;51.474;5.696;2024-03-07T01:15:51;149.27;;;42.65;;
46731;SDS011;32477;51.474;5.696;2024-03-07T01:18:17;168.40;;;45.58;;
46731;SDS011;32477;51.474;5.696;2024-03-07T01:20:43;179.70;;;43.17;;
46731;SDS011;32477;51.474;5.696;2024-03-07T01:23:09;167.63;;;45.17;;
46731;SDS011;32477;51.474;5.696;2024-03-07T01:25:35;151.30;;;43.47;;
46731;SDS011;32477;51.474;5.696;2024-03-07T01:28:01;162.30;;;43.28;;
46731;SDS011;32477;51.474;5.696;2024-03-07T01:30:29;164.70;;;42.97;;
46731;SDS011;32477;51.474;5.696;2024-03-07T01:32:54;153.00;;;42.83;;
46731;SDS011;32477;51.474;5.696;2024-03-07T01:35:20;190.02;;;45.72;;
46731;SDS011;32477;51.474;5.696;2024-03-07T01:37:46;180.13;;;46.00;;
46731;SDS011;32477;51.474;5.696;2024-03-07T01:40:11;180.48;;;45.88;;
46731;SDS011;32477;51.474;5.696;2024-03-07T01:42:39;170.88;;;46.38;;
46731;SDS011;32477;51.474;5.696;2024-03-07T01:45:05;182.27;;;44.45;;
46731;SDS011;32477;51.474;5.696;2024-03-07T01:47:33;178.25;;;44.42;;
46731;SDS011;32477;51.474;5.696;2024-03-07T01:50:02;167.35;;;44.50;;
46731;SDS011;32477;51.474;5.696;2024-03-07T01:52:29;191.65;;;45.08;;
46731;SDS011;32477;51.474;5.696;2024-03-07T01:54:55;172.55;;;45.80;;
46731;SDS011;32477;51.474;5.696;2024-03-07T01:57:21;189.73;;;45.75;;
46731;SDS011;32477;51.474;5.696;2024-03-07T01:59:47;171.75;;;45.83;;
46731;SDS011;32477;51.474;5.696;2024-03-07T02:02:15;196.88;;;45.75;;
46731;SDS011;32477;51.474;5.696;2024-03-07T02:04:42;191.43;;;47.00;;
46731;SDS011;32477;51.474;5.696;2024-03-07T02:07:08;189.07;;;48.22;;
46731;SDS011;32477;51.474;5.696;2024-03-07T02:09:36;181.85;;;46.58;;
46731;SDS011;32477;51.474;5.696;2024-03-07T02:12:02;178.38;;;45.75;;
46731;SDS011;32477;51.474;5.696;2024-03-07T02:14:28;190.15;;;47.20;;
46731;SDS011;32477;51.474;5.696;2024-03-07T02:16:54;193.02;;;44.85;;
46731;SDS011;32477;51.474;5.696;2024-03-07T02:19:24;186.98;;;46.45;;
46731;SDS011;32477;51.474;5.696;2024-03-07T02:21:49;186.05;;;47.08;;
46731;SDS011;32477;51.474;5.696;2024-03-07T02:24:15;186.65;;;49.15;;
46731;SDS011;32477;51.474;5.696;2024-03-07T02:26:41;191.82;;;49.42;;
46731;SDS011;32477;51.474;5.696;2024-03-07T02:29:06;192.73;;;50.72;;
46731;SDS011;32477;51.474;5.696;2024-03-07T02:31:32;197.07;;;48.35;;
46731;SDS011;32477;51.474;5.696;2024-03-07T02:34:02;201.02;;;48.22;;
46731;SDS011;32477;51.474;5.696;2024-03-07T02:36:28;189.30;;;48.05;;
46731;SDS011;32477;51.474;5.696;2024-03-07T02:38:54;205.68;;;47.92;;
46731;SDS011;32477;51.474;5.696;2024-03-07T02:41:20;187.40;;;46.47;;
46731;SDS011;32477;51.474;5.696;2024-03-07T02:43:46;199.50;;;49.55;;
46731;SDS011;32477;51.474;5.696;2024-03-07T02:46:12;188.13;;;49.53;;
46731;SDS011;32477;51.474;5.696;2024-03-07T02:48:38;184.60;;;48.45;;
46731;SDS011;32477;51.474;5.696;2024-03-07T02:51:04;227.68;;;51.45;;
46731;SDS011;32477;51.474;5.696;2024-03-07T02:53:32;193.73;;;49.65;;
46731;SDS011;32477;51.474;5.696;2024-03-07T02:55:58;191.48;;;49.88;;
46731;SDS011;32477;51.474;5.696;2024-03-07T02:58:24;216.68;;;49.63;;
46731;SDS011;32477;51.474;5.696;2024-03-07T03:00:59;218.88;;;49.70;;
46731;SDS011;32477;51.474;5.696;2024-03-07T03:03:27;188.27;;;48.13;;
46731;SDS011;32477;51.474;5.696;2024-03-07T03:05:56;220.20;;;50.83;;
46731;SDS011;32477;51.474;5.696;2024-03-07T03:08:22;199.07;;;51.22;;
46731;SDS011;32477;51.474;5.696;2024-03-07T03:10:48;201.15;;;50.22;;
46731;SDS011;32477;51.474;5.696;2024-03-07T03:13:16;216.70;;;49.58;;
46731;SDS011;32477;51.474;5.696;2024-03-07T03:15:42;208.85;;;49.80;;
46731;SDS011;32477;51.474;5.696;2024-03-07T03:18:08;205.60;;;51.92;;
46731;SDS011;32477;51.474;5.696;2024-03-07T03:20:34;200.25;;;52.35;;
46731;SDS011;32477;51.474;5.696;2024-03-07T03:23:04;197.05;;;49.13;;
46731;SDS011;32477;51.474;5.696;2024-03-07T03:25:31;205.65;;;50.92;;
46731;SDS011;32477;51.474;5.696;2024-03-07T03:28:00;212.98;;;48.38;;
46731;SDS011;32477;51.474;5.696;2024-03-07T03:30:26;205.35;;;49.58;;
46731;SDS011;32477;51.474;5.696;2024-03-07T03:32:52;208.35;;;51.58;;
46731;SDS011;32477;51.474;5.696;2024-03-07T03:35:17;196.95;;;48.00;;
46731;SDS011;32477;51.474;5.696;2024-03-07T03:37:44;203.65;;;48.85;;
46731;SDS011;32477;51.474;5.696;2024-03-07T03:40:10;191.65;;;48.22;;
46731;SDS011;32477;51.474;5.696;2024-03-07T03:42:38;214.07;;;50.08;;
46731;SDS011;32477;51.474;5.696;2024-03-07T03:45:05;210.02;;;50.60;;
46731;SDS011;32477;51.474;5.696;2024-03-07T03:47:36;189.50;;;48.95;;
46731;SDS011;32477;51.474;5.696;2024-03-07T03:50:05;190.27;;;46.33;;
46731;SDS011;32477;51.474;5.696;2024-03-07T03:52:33;200.48;;;52.47;;
46731;SDS011;32477;51.474;5.696;2024-03-07T03:55:02;194.45;;;50.75;;
46731;SDS011;32477;51.474;5.696;2024-03-07T03:57:32;198.60;;;47.60;;
46731;SDS011;32477;51.474;5.696;2024-03-07T03:59:58;212.68;;;50.42;;
46731;SDS011;32477;51.474;5.696;2024-03-07T04:02:24;222.98;;;50.33;;
46731;SDS011;32477;51.474;5.696;2024-03-07T04:04:53;196.30;;;49.60;;
46731;SDS011;32477;51.474;5.696;2024-03-07T04:07:19;190.48;;;49.75;;
46731;SDS011;32477;51.474;5.696;2024-03-07T04:09:45;212.65;;;52.08;;
46731;SDS011;32477;51.474;5.696;2024-03-07T04:12:11;203.60;;;50.53;;
46731;SDS011;32477;51.474;5.696;2024-03-07T04:14:41;212.63;;;47.97;;
46731;SDS011;32477;51.474;5.696;2024-03-07T04:17:08;208.50;;;48.95;;
46731;SDS011;32477;51.474;5.696;2024-03-07T04:19:40;192.10;;;49.47;;
46731;SDS011;32477;51.474;5.696;2024-03-07T04:22:06;196.77;;;48.17;;
46731;SDS011;32477;51.474;5.696;2024-03-07T04:24:33;181.63;;;47.92;;
46731;SDS011;32477;51.474;5.696;2024-03-07T04:27:02;214.25;;;51.58;;
46731;SDS011;32477;51.474;5.696;2024-03-07T04:29:32;182.80;;;49.88;;
46731;SDS011;32477;51.474;5.696;2024-03-07T04:31:58;197.43;;;47.20;;
46731;SDS011;32477;51.474;5.696;2024-03-07T04:34:24;224.15;;;50.58;;
46731;SDS011;32477;51.474;5.696;2024-03-07T04:36:50;210.40;;;51.05;;
46731;SDS011;32477;51.474;5.696;2024-03-07T04:39:16;218.93;;;54.47;;
46731;SDS011;32477;51.474;5.696;2024-03-07T04:41:52;207.57;;;49.58;;
46731;SDS011;32477;51.474;5.696;2024-03-07T04:44:19;215.00;;;52.72;;
46731;SDS011;32477;51.474;5.696;2024-03-07T04:46:47;185.68;;;50.13;;
46731;SDS011;32477;51.474;5.696;2024-03-07T04:49:20;198.63;;;51.35;;
46731;SDS011;32477;51.474;5.696;2024-03-07T04:51:48;210.35;;;51.75;;
46731;SDS011;32477;51.474;5.696;2024-03-07T04:54:14;214.80;;;53.03;;
46731;SDS011;32477;51.474;5.696;2024-03-07T04:56:40;204.50;;;51.42;;
46731;SDS011;32477;51.474;5.696;2024-03-07T04:59:06;192.20;;;49.50;;
46731;SDS011;32477;51.474;5.696;2024-03-07T05:01:31;217.98;;;51.70;;
46731;SDS011;32477;51.474;5.696;2024-03-07T05:03:57;183.60;;;47.28;;
46731;SDS011;32477;51.474;5.696;2024-03-07T05:06:23;213.50;;;52.90;;
46731;SDS011;32477;51.474;5.696;2024-03-07T05:08:48;201.20;;;49.55;;
46731;SDS011;32477;51.474;5.696;2024-03-07T05:11:14;204.05;;;52.63;;
46731;SDS011;32477;51.474;5.696;2024-03-07T05:13:40;234.43;;;52.00;;
46731;SDS011;32477;51.474;5.696;2024-03-07T05:16:07;218.15;;;54.70;;
46731;SDS011;32477;51.474;5.696;2024-03-07T05:18:33;208.90;;;50.92;;
46731;SDS011;32477;51.474;5.696;2024-03-07T05:20:58;203.02;;;49.53;;
46731;SDS011;32477;51.474;5.696;2024-03-07T05:23:44;202.35;;;49.50;;
46731;SDS011;32477;51.474;5.696;2024-03-07T05:26:10;212.13;;;49.22;;
46731;SDS011;32477;51.474;5.696;2024-03-07T05:28:35;219.68;;;53.72;;
46731;SDS011;32477;51.474;5.696;2024-03-07T05:31:01;238.18;;;51.65;;
46731;SDS011;32477;51.474;5.696;2024-03-07T05:33:29;185.90;;;51.45;;
46731;SDS011;32477;51.474;5.696;2024-03-07T05:35:54;220.77;;;51.72;;
46731;SDS011;32477;51.474;5.696;2024-03-07T05:38:38;202.10;;;51.37;;
46731;SDS011;32477;51.474;5.696;2024-03-07T05:41:04;231.27;;;55.30;;
46731;SDS011;32477;51.474;5.696;2024-03-07T05:43:30;195.57;;;47.90;;
46731;SDS011;32477;51.474;5.696;2024-03-07T05:45:57;209.40;;;51.05;;
46731;SDS011;32477;51.474;5.696;2024-03-07T05:48:25;214.38;;;51.95;;
46731;SDS011;32477;51.474;5.696;2024-03-07T05:50:51;212.93;;;50.40;;
46731;SDS011;32477;51.474;5.696;2024-03-07T05:53:17;222.70;;;52.28;;
46731;SDS011;32477;51.474;5.696;2024-03-07T05:55:43;191.45;;;49.25;;
46731;SDS011;32477;51.474;5.696;2024-03-07T05:58:10;223.60;;;53.20;;
46731;SDS011;32477;51.474;5.696;2024-03-07T06:00:36;205.93;;;53.13;;
46731;SDS011;32477;51.474;5.696;2024-03-07T06:03:03;194.60;;;51.63;;
46731;SDS011;32477;51.474;5.696;2024-03-07T06:05:30;199.50;;;49.53;;
46731;SDS011;32477;51.474;5.696;2024-03-07T06:07:56;209.43;;;50.13;;
46731;SDS011;32477;51.474;5.696;2024-03-07T06:10:21;195.68;;;50.38;;
46731;SDS011;32477;51.474;5.696;2024-03-07T06:12:51;218.32;;;48.47;;
46731;SDS011;32477;51.474;5.696;2024-03-07T06:15:17;199.27;;;50.03;;
46731;SDS011;32477;51.474;5.696;2024-03-07T06:17:43;214.40;;;51.30;;
46731;SDS011;32477;51.474;5.696;2024-03-07T06:20:11;227.45;;;53.25;;
46731;SDS011;32477;51.474;5.696;2024-03-07T06:22:47;206.73;;;49.17;;
46731;SDS011;32477;51.474;5.696;2024-03-07T06:25:17;200.43;;;50.22;;
46731;SDS011;32477;51.474;5.696;2024-03-07T06:27:58;208.13;;;49.85;;
46731;SDS011;32477;51.474;5.696;2024-03-07T06:30:33;217.27;;;50.70;;
46731;SDS011;32477;51.474;5.696;2024-03-07T06:32:59;217.40;;;54.30;;
46731;SDS011;32477;51.474;5.696;2024-03-07T06:35:25;226.10;;;53.40;;
46731;SDS011;32477;51.474;5.696;2024-03-07T06:37:50;221.02;;;55.58;;
46731;SDS011;32477;51.474;5.696;2024-03-07T06:40:16;206.10;;;51.75;;
46731;SDS011;32477;51.474;5.696;2024-03-07T06:42:46;221.98;;;53.92;;
46731;SDS011;32477;51.474;5.696;2024-03-07T06:45:12;218.77;;;52.65;;
46731;SDS011;32477;51.474;5.696;2024-03-07T06:47:37;225.70;;;52.13;;
46731;SDS011;32477;51.474;5.696;2024-03-07T06:50:03;229.27;;;52.45;;
46731;SDS011;32477;51.474;5.696;2024-03-07T06:52:33;218.02;;;54.50;;
46731;SDS011;32477;51.474;5.696;2024-03-07T06:54:59;212.98;;;53.03;;
46731;SDS011;32477;51.474;5.696;2024-03-07T06:57:24;209.57;;;53.15;;
46731;SDS011;32477;51.474;5.696;2024-03-07T06:59:50;228.85;;;55.35;;
46731;SDS011;32477;51.474;5.696;2024-03-07T07:02:16;225.93;;;55.80;;
46731;SDS011;32477;51.474;5.696;2024-03-07T07:04:42;244.48;;;58.63;;
46731;SDS011;32477;51.474;5.696;2024-03-07T07:07:12;222.52;;;55.08;;
46731;SDS011;32477;51.474;5.696;2024-03-07T07:09:39;248.60;;;56.67;;
46731;SDS011;32477;51.474;5.696;2024-03-07T07:12:05;250.82;;;57.58;;
46731;SDS011;32477;51.474;5.696;2024-03-07T07:14:31;254.65;;;59.78;;
46731;SDS011;32477;51.474;5.696;2024-03-07T07:16:57;239.05;;;62.47;;
46731;SDS011;32477;51.474;5.696;2024-03-07T07:19:24;262.63;;;64.88;;
46731;SDS011;32477;51.474;5.696;2024-03-07T07:21:50;238.43;;;65.80;;
46731;SDS011;32477;51.474;5.696;2024-03-07T07:24:18;243.80;;;66.00;;
46731;SDS011;32477;51.474;5.696;2024-03-07T07:26:48;255.70;;;66.85;;
46731;SDS011;32477;51.474;5.696;2024-03-07T07:29:15;245.02;;;64.82;;
46731;SDS011;32477;51.474;5.696;2024-03-07T07:31:41;242.98;;;63.53;;
46731;SDS011;32477;51.474;5.696;2024-03-07T07:34:07;235.90;;;64.05;;
46731;SDS011;32477;51.474;5.696;2024-03-07T07:36:32;211.13;;;61.53;;
46731;SDS011;32477;51.474;5.696;2024-03-07T07:38:58;218.15;;;61.85;;
46731;SDS011;32477;51.474;5.696;2024-03-07T07:41:24;178.25;;;56.50;;
46731;SDS011;32477;51.474;5.696;2024-03-07T07:43:50;168.00;;;53.97;;
46731;SDS011;32477;51.474;5.696;2024-03-07T07:46:16;128.63;;;48.42;;
46731;SDS011;32477;51.474;5.696;2024-03-07T07:48:42;105.43;;;45.13;;
46731;SDS011;32477;51.474;5.696;2024-03-07T07:51:09;85.32;;;38.15;;
46731;SDS011;32477;51.474;5.696;2024-03-07T07:53:34;73.72;;;34.67;;
46731;SDS011;32477;51.474;5.696;2024-03-07T07:56:00;65.63;;;33.60;;
46731;SDS011;32477;51.474;5.696;2024-03-07T07:58:26;62.45;;;30.65;;
46731;SDS011;32477;51.474;5.696;2024-03-07T08:00:52;60.95;;;30.85;;
46731;SDS011;32477;51.474;5.696;2024-03-07T08:03:17;60.95;;;27.85;;
46731;SDS011;32477;51.474;5.696;2024-03-07T08:05:43;49.95;;;25.65;;
46731;SDS011;32477;51.474;5.696;2024-03-07T08:08:12;49.53;;;24.88;;
46731;SDS011;32477;51.474;5.696;2024-03-07T08:10:41;54.15;;;25.60;;
46731;SDS011;32477;51.474;5.696;2024-03-07T08:13:07;47.00;;;25.00;;
46731;SDS011;32477;51.474;5.696;2024-03-07T08:15:33;47.15;;;25.33;;
46731;SDS011;32477;51.474;5.696;2024-03-07T08:17:59;48.58;;;24.50;;
46731;SDS011;32477;51.474;5.696;2024-03-07T08:20:26;47.38;;;25.30;;
46731;SDS011;32477;51.474;5.696;2024-03-07T08:22:52;42.70;;;24.23;;
46731;SDS011;32477;51.474;5.696;2024-03-07T08:25:20;44.20;;;24.80;;
46731;SDS011;32477;51.474;5.696;2024-03-07T08:27:48;43.40;;;23.08;;
46731;SDS011;32477;51.474;5.696;2024-03-07T08:30:15;42.08;;;24.75;;
46731;SDS011;32477;51.474;5.696;2024-03-07T08:32:41;42.15;;;23.58;;
46731;SDS011;32477;51.474;5.696;2024-03-07T08:35:09;46.53;;;22.58;;
46731;SDS011;32477;51.474;5.696;2024-03-07T08:37:37;43.13;;;22.48;;
46731;SDS011;32477;51.474;5.696;2024-03-07T08:40:07;42.60;;;23.50;;
46731;SDS011;32477;51.474;5.696;2024-03-07T08:42:36;39.95;;;22.55;;
46731;SDS011;32477;51.474;5.696;2024-03-07T08:45:02;39.20;;;23.02;;
46731;SDS011;32477;51.474;5.696;2024-03-07T08:47:30;37.75;;;21.25;;
46731;SDS011;32477;51.474;5.696;2024-03-07T08:49:59;38.00;;;21.90;;
46731;SDS011;32477;51.474;5.696;2024-03-07T08:52:25;41.63;;;21.02;;
46731;SDS011;32477;51.474;5.696;2024-03-07T08:54:51;37.75;;;21.58;;
46731;SDS011;32477;51.474;5.696;2024-03-07T08:57:16;43.78;;;20.10;;
46731;SDS011;32477;51.474;5.696;2024-03-07T08:59:43;38.22;;;19.88;;
46731;SDS011;32477;51.474;5.696;2024-03-07T09:02:09;35.42;;;20.30;;
46731;SDS011;32477;51.474;5.696;2024-03-07T09:04:36;33.00;;;19.52;;
46731;SDS011;32477;51.474;5.696;2024-03-07T09:07:03;35.10;;;19.77;;
46731;SDS011;32477;51.474;5.696;2024-03-07T09:09:30;38.15;;;18.98;;
46731;SDS011;32477;51.474;5.696;2024-03-07T09:11:56;36.60;;;19.25;;
46731;SDS011;32477;51.474;5.696;2024-03-07T09:14:21;34.88;;;19.02;;
46731;SDS011;32477;51.474;5.696;2024-03-07T09:16:47;36.63;;;19.40;;
46731;SDS011;32477;51.474;5.696;2024-03-07T09:19:13;34.85;;;19.95;;
46731;SDS011;32477;51.474;5.696;2024-03-07T09:21:44;32.95;;;18.02;;
46731;SDS011;32477;51.474;5.696;2024-03-07T09:24:11;37.10;;;19.50;;
46731;SDS011;32477;51.474;5.696;2024-03-07T09:26:37;34.72;;;19.38;;
46731;SDS011;32477;51.474;5.696;2024-03-07T09:29:03;30.45;;;18.05;;
46731;SDS011;32477;51.474;5.696;2024-03-07T09:31:31;34.38;;;18.33;;
46731;SDS011;32477;51.474;5.696;2024-03-07T09:33:57;34.70;;;19.75;;
46731;SDS011;32477;51.474;5.696;2024-03-07T09:36:23;36.45;;;19.17;;
46731;SDS011;32477;51.474;5.696;2024-03-07T09:38:49;32.15;;;18.88;;
46731;SDS011;32477;51.474;5.696;2024-03-07T09:41:15;32.90;;;17.52;;
46731;SDS011;32477;51.474;5.696;2024-03-07T09:43:42;31.23;;;17.27;;
46731;SDS011;32477;51.474;5.696;2024-03-07T09:46:11;33.75;;;18.20;;
46731;SDS011;32477;51.474;5.696;2024-03-07T09:48:37;34.20;;;18.10;;
46731;SDS011;32477;51.474;5.696;2024-03-07T09:51:04;33.30;;;18.20;;
46731;SDS011;32477;51.474;5.696;2024-03-07T09:53:32;31.73;;;18.17;;
46731;SDS011;32477;51.474;5.696;2024-03-07T09:55:59;30.30;;;17.95;;
46731;SDS011;32477;51.474;5.696;2024-03-07T09:58:26;35.05;;;19.05;;
46731;SDS011;32477;51.474;5.696;2024-03-07T10:00:54;41.78;;;19.02;;
46731;SDS011;32477;51.474;5.696;2024-03-07T10:03:21;35.05;;;19.63;;
46731;SDS011;32477;51.474;5.696;2024-03-07T10:05:49;31.48;;;18.63;;
46731;SDS011;32477;51.474;5.696;2024-03-07T10:08:17;36.10;;;20.00;;
46731;SDS011;32477;51.474;5.696;2024-03-07T10:10:44;35.42;;;19.38;;
46731;SDS011;32477;51.474;5.696;2024-03-07T10:13:12;36.55;;;19.25;;
46731;SDS011;32477;51.474;5.696;2024-03-07T10:15:38;38.20;;;19.05;;
46731;SDS011;32477;51.474;5.696;2024-03-07T10:18:06;32.40;;;19.40;;
46731;SDS011;32477;51.474;5.696;2024-03-07T10:20:36;29.88;;;18.65;;
46731;SDS011;32477;51.474;5.696;2024-03-07T10:23:02;35.38;;;19.00;;
46731;SDS011;32477;51.474;5.696;2024-03-07T10:25:28;31.13;;;18.17;;
46731;SDS011;32477;51.474;5.696;2024-03-07T10:27:54;36.22;;;19.13;;
46731;SDS011;32477;51.474;5.696;2024-03-07T10:30:20;33.85;;;18.63;;
46731;SDS011;32477;51.474;5.696;2024-03-07T10:32:46;32.72;;;19.45;;
46731;SDS011;32477;51.474;5.696;2024-03-07T10:35:13;31.10;;;18.30;;
46731;SDS011;32477;51.474;5.696;2024-03-07T10:37:40;34.28;;;20.10;;
46731;SDS011;32477;51.474;5.696;2024-03-07T10:40:06;37.30;;;19.13;;
46731;SDS011;32477;51.474;5.696;2024-03-07T10:42:42;38.63;;;18.70;;
46731;SDS011;32477;51.474;5.696;2024-03-07T10:45:11;33.42;;;19.38;;
46731;SDS011;32477;51.474;5.696;2024-03-07T10:47:41;34.50;;;19.08;;
46731;SDS011;32477;51.474;5.696;2024-03-07T10:50:16;32.70;;;19.20;;
46731;SDS011;32477;51.474;5.696;2024-03-07T10:52:54;38.92;;;20.65;;
46731;SDS011;32477;51.474;5.696;2024-03-07T10:55:36;36.58;;;18.77;;
46731;SDS011;32477;51.474;5.696;2024-03-07T10:58:14;36.42;;;20.55;;
46731;SDS011;32477;51.474;5.696;2024-03-07T11:00:51;32.03;;;19.20;;
46731;SDS011;32477;51.474;5.696;2024-03-07T11:03:20;31.27;;;18.40;;
46731;SDS011;32477;51.474;5.696;2024-03-07T11:05:46;31.60;;;18.13;;
46731;SDS011;32477;51.474;5.696;2024-03-07T11:08:12;37.15;;;18.48;;
46731;SDS011;32477;51.474;5.696;2024-03-07T11:10:40;28.75;;;18.23;;
46731;SDS011;32477;51.474;5.696;2024-03-07T11:13:06;33.58;;;18.67;;
46731;SDS011;32477;51.474;5.696;2024-03-07T11:15:37;26.75;;;16.55;;
46731;SDS011;32477;51.474;5.696;2024-03-07T11:18:06;32.70;;;17.48;;
46731;SDS011;32477;51.474;5.696;2024-03-07T11:20:37;28.80;;;16.38;;
46731;SDS011;32477;51.474;5.696;2024-03-07T11:25:54;23.83;;;15.55;;
46731;SDS011;32477;51.474;5.696;2024-03-07T11:28:27;28.85;;;15.10;;
46731;SDS011;32477;51.474;5.696;2024-03-07T11:30:54;27.75;;;15.38;;
46731;SDS011;32477;51.474;5.696;2024-03-07T11:33:19;27.50;;;14.10;;
46731;SDS011;32477;51.474;5.696;2024-03-07T11:35:48;30.55;;;14.93;;
46731;SDS011;32477;51.474;5.696;2024-03-07T11:38:14;30.05;;;15.63;;
46731;SDS011;32477;51.474;5.696;2024-03-07T11:43:05;26.95;;;13.43;;
46731;SDS011;32477;51.474;5.696;2024-03-07T11:45:31;25.45;;;13.80;;
46731;SDS011;32477;51.474;5.696;2024-03-07T11:48:10;26.52;;;13.88;;
46731;SDS011;32477;51.474;5.696;2024-03-07T11:50:36;25.92;;;12.57;;
46731;SDS011;32477;51.474;5.696;2024-03-07T11:53:06;28.42;;;13.50;;
46731;SDS011;32477;51.474;5.696;2024-03-07T11:55:35;32.72;;;13.30;;
46731;SDS011;32477;51.474;5.696;2024-03-07T11:58:15;27.30;;;13.45;;
46731;SDS011;32477;51.474;5.696;2024-03-07T12:00:45;26.02;;;13.30;;
46731;SDS011;32477;51.474;5.696;2024-03-07T12:03:14;26.73;;;13.25;;
46731;SDS011;32477;51.474;5.696;2024-03-07T12:05:46;25.42;;;13.73;;
46731;SDS011;32477;51.474;5.696;2024-03-07T12:08:16;27.85;;;14.82;;
46731;SDS011;32477;51.474;5.696;2024-03-07T12:10:42;30.60;;;13.88;;
46731;SDS011;32477;51.474;5.696;2024-03-07T12:13:12;27.58;;;13.82;;
46731;SDS011;32477;51.474;5.696;2024-03-07T12:15:42;26.40;;;13.13;;
46731;SDS011;32477;51.474;5.696;2024-03-07T12:18:08;28.45;;;13.05;;
46731;SDS011;32477;51.474;5.696;2024-03-07T12:20:41;25.75;;;13.98;;
46731;SDS011;32477;51.474;5.696;2024-03-07T12:23:11;27.42;;;13.60;;
46731;SDS011;32477;51.474;5.696;2024-03-07T12:25:38;29.60;;;13.65;;
46731;SDS011;32477;51.474;5.696;2024-03-07T12:30:35;24.38;;;14.15;;
46731;SDS011;32477;51.474;5.696;2024-03-07T12:33:03;26.27;;;14.27;;
46731;SDS011;32477;51.474;5.696;2024-03-07T12:35:32;27.42;;;14.48;;
46731;SDS011;32477;51.474;5.696;2024-03-07T12:37:58;29.58;;;14.70;;
46731;SDS011;32477;51.474;5.696;2024-03-07T12:40:24;22.98;;;13.75;;
46731;SDS011;32477;51.474;5.696;2024-03-07T12:42:54;26.45;;;14.57;;
46731;SDS011;32477;51.474;5.696;2024-03-07T12:45:19;26.95;;;14.27;;
46731;SDS011;32477;51.474;5.696;2024-03-07T12:47:48;19.73;;;12.05;;
46731;SDS011;32477;51.474;5.696;2024-03-07T12:50:18;25.70;;;12.73;;
46731;SDS011;32477;51.474;5.696;2024-03-07T12:52:47;25.20;;;13.05;;
46731;SDS011;32477;51.474;5.696;2024-03-07T12:55:17;21.92;;;12.88;;
46731;SDS011;32477;51.474;5.696;2024-03-07T12:57:52;27.38;;;13.25;;
46731;SDS011;32477;51.474;5.696;2024-03-07T13:00:19;27.63;;;13.45;;
46731;SDS011;32477;51.474;5.696;2024-03-07T13:02:48;24.23;;;13.32;;
46731;SDS011;32477;51.474;5.696;2024-03-07T13:05:14;25.67;;;14.57;;
46731;SDS011;32477;51.474;5.696;2024-03-07T13:07:46;27.13;;;13.65;;
46731;SDS011;32477;51.474;5.696;2024-03-07T13:10:13;26.42;;;13.75;;
46731;SDS011;32477;51.474;5.696;2024-03-07T13:12:45;28.75;;;13.98;;
46731;SDS011;32477;51.474;5.696;2024-03-07T13:15:15;27.13;;;13.50;;
46731;SDS011;32477;51.474;5.696;2024-03-07T13:17:41;28.33;;;14.27;;
46731;SDS011;32477;51.474;5.696;2024-03-07T13:20:10;25.67;;;13.43;;
46731;SDS011;32477;51.474;5.696;2024-03-07T13:22:37;28.02;;;13.48;;
46731;SDS011;32477;51.474;5.696;2024-03-07T13:25:04;32.58;;;14.35;;
46731;SDS011;32477;51.474;5.696;2024-03-07T13:30:16;28.33;;;13.77;;
46731;SDS011;32477;51.474;5.696;2024-03-07T13:32:48;24.63;;;13.60;;
46731;SDS011;32477;51.474;5.696;2024-03-07T13:35:15;24.38;;;12.88;;
46731;SDS011;32477;51.474;5.696;2024-03-07T13:37:40;28.75;;;14.10;;
46731;SDS011;32477;51.474;5.696;2024-03-07T13:40:06;27.58;;;14.93;;
46731;SDS011;32477;51.474;5.696;2024-03-07T13:42:47;26.95;;;14.38;;
46731;SDS011;32477;51.474;5.696;2024-03-07T13:45:24;27.48;;;14.60;;
46731;SDS011;32477;51.474;5.696;2024-03-07T13:47:51;28.20;;;14.45;;
46731;SDS011;32477;51.474;5.696;2024-03-07T13:50:19;26.00;;;13.40;;
46731;SDS011;32477;51.474;5.696;2024-03-07T13:52:50;29.00;;;12.93;;
46731;SDS011;32477;51.474;5.696;2024-03-07T13:55:47;27.58;;;12.68;;
46731;SDS011;32477;51.474;5.696;2024-03-07T13:58:17;22.80;;;12.15;;
46731;SDS011;32477;51.474;5.696;2024-03-07T14:04:05;29.70;;;13.85;;
46731;SDS011;32477;51.474;5.696;2024-03-07T14:06:50;31.27;;;14.75;;
46731;SDS011;32477;51.474;5.696;2024-03-07T14:12:48;33.13;;;15.57;;
46731;SDS011;32477;51.474;5.696;2024-03-07T14:29:59;29.08;;;15.18;;
46731;SDS011;32477;51.474;5.696;2024-03-07T14:32:51;29.95;;;14.75;;
46731;SDS011;32477;51.474;5.696;2024-03-07T14:35:39;37.97;;;16.65;;
46731;SDS011;32477;51.474;5.696;2024-03-07T14:38:51;34.20;;;14.82;;
46731;SDS011;32477;51.474;5.696;2024-03-07T14:41:20;32.17;;;17.17;;
46731;SDS011;32477;51.474;5.696;2024-03-07T14:44:03;32.17;;;15.90;;
46731;SDS011;32477;51.474;5.696;2024-03-07T14:46:32;30.10;;;16.58;;
46731;SDS011;32477;51.474;5.696;2024-03-07T14:48:58;39.00;;;15.30;;